sensor_id;sensor_type;location;lat;lon;timestamp;P1;durP1;ratioP1;P2;durP2;ratioP2
49488;SDS011;35382;51.484;11.476;2023-04-24T00:00:39;8.25;;;5.20;;
49488;SDS011;35382;51.484;11.476;2023-04-24T00:02:21;7.63;;;5.05;;
49488;SDS011;35382;51.484;11.476;2023-04-24T00:04:02;8.90;;;4.85;;
49488;SDS011;35382;51.484;11.476;2023-04-24T00:05:44;8.15;;;5.60;;
49488;SDS011;35382;51.484;11.476;2023-04-24T00:07:26;7.97;;;5.47;;
49488;SDS011;35382;51.484;11.476;2023-04-24T00:09:07;7.72;;;5.38;;
49488;SDS011;35382;51.484;11.476;2023-04-24T00:10:47;8.02;;;5.68;;
49488;SDS011;35382;51.484;11.476;2023-04-24T00:12:28;8.60;;;5.10;;
49488;SDS011;35382;51.484;11.476;2023-04-24T00:14:10;8.18;;;5.13;;
49488;SDS011;35382;51.484;11.476;2023-04-24T00:15:51;6.47;;;4.63;;
49488;SDS011;35382;51.484;11.476;2023-04-24T00:17:32;6.80;;;5.03;;
49488;SDS011;35382;51.484;11.476;2023-04-24T00:19:13;8.90;;;5.68;;
49488;SDS011;35382;51.484;11.476;2023-04-24T00:20:54;8.85;;;6.13;;
49488;SDS011;35382;51.484;11.476;2023-04-24T00:22:34;7.55;;;4.93;;
49488;SDS011;35382;51.484;11.476;2023-04-24T00:24:16;7.10;;;4.95;;
49488;SDS011;35382;51.484;11.476;2023-04-24T00:25:57;8.38;;;4.72;;
49488;SDS011;35382;51.484;11.476;2023-04-24T00:27:38;6.45;;;4.43;;
49488;SDS011;35382;51.484;11.476;2023-04-24T00:29:19;6.97;;;4.00;;
49488;SDS011;35382;51.484;11.476;2023-04-24T00:31:00;5.53;;;3.60;;
49488;SDS011;35382;51.484;11.476;2023-04-24T00:32:42;7.00;;;4.03;;
49488;SDS011;35382;51.484;11.476;2023-04-24T00:34:23;6.60;;;3.75;;
49488;SDS011;35382;51.484;11.476;2023-04-24T00:36:04;5.60;;;3.63;;
49488;SDS011;35382;51.484;11.476;2023-04-24T00:37:45;5.00;;;3.20;;
49488;SDS011;35382;51.484;11.476;2023-04-24T00:39:26;5.10;;;3.22;;
49488;SDS011;35382;51.484;11.476;2023-04-24T00:41:07;6.72;;;3.28;;
49488;SDS011;35382;51.484;11.476;2023-04-24T00:42:48;5.43;;;2.63;;
49488;SDS011;35382;51.484;11.476;2023-04-24T00:44:29;5.60;;;2.55;;
49488;SDS011;35382;51.484;11.476;2023-04-24T00:46:10;4.18;;;2.25;;
49488;SDS011;35382;51.484;11.476;2023-04-24T00:47:52;4.75;;;2.38;;
49488;SDS011;35382;51.484;11.476;2023-04-24T00:49:33;5.57;;;2.42;;
49488;SDS011;35382;51.484;11.476;2023-04-24T00:51:14;4.97;;;2.25;;
49488;SDS011;35382;51.484;11.476;2023-04-24T00:52:55;4.18;;;2.40;;
49488;SDS011;35382;51.484;11.476;2023-04-24T00:54:36;5.07;;;2.53;;
49488;SDS011;35382;51.484;11.476;2023-04-24T00:56:17;5.25;;;2.20;;
49488;SDS011;35382;51.484;11.476;2023-04-24T00:57:59;6.20;;;2.45;;
49488;SDS011;35382;51.484;11.476;2023-04-24T00:59:40;3.67;;;2.50;;
49488;SDS011;35382;51.484;11.476;2023-04-24T01:01:22;4.88;;;2.90;;
49488;SDS011;35382;51.484;11.476;2023-04-24T01:03:05;5.32;;;2.95;;
49488;SDS011;35382;51.484;11.476;2023-04-24T01:04:47;4.07;;;2.42;;
49488;SDS011;35382;51.484;11.476;2023-04-24T01:06:30;6.00;;;2.90;;
49488;SDS011;35382;51.484;11.476;2023-04-24T01:08:11;6.65;;;3.30;;
49488;SDS011;35382;51.484;11.476;2023-04-24T01:09:52;5.00;;;2.97;;
49488;SDS011;35382;51.484;11.476;2023-04-24T01:11:34;6.40;;;3.05;;
49488;SDS011;35382;51.484;11.476;2023-04-24T01:13:15;5.30;;;3.17;;
49488;SDS011;35382;51.484;11.476;2023-04-24T01:14:59;5.63;;;3.08;;
49488;SDS011;35382;51.484;11.476;2023-04-24T01:16:40;6.03;;;3.50;;
49488;SDS011;35382;51.484;11.476;2023-04-24T01:18:22;4.80;;;3.17;;
49488;SDS011;35382;51.484;11.476;2023-04-24T01:20:04;6.18;;;3.05;;
49488;SDS011;35382;51.484;11.476;2023-04-24T01:21:46;5.00;;;3.08;;
49488;SDS011;35382;51.484;11.476;2023-04-24T01:23:28;4.47;;;2.47;;
49488;SDS011;35382;51.484;11.476;2023-04-24T01:25:09;4.50;;;2.60;;
49488;SDS011;35382;51.484;11.476;2023-04-24T01:26:50;5.72;;;2.95;;
49488;SDS011;35382;51.484;11.476;2023-04-24T01:28:33;4.85;;;2.50;;
49488;SDS011;35382;51.484;11.476;2023-04-24T01:30:14;5.32;;;2.97;;
49488;SDS011;35382;51.484;11.476;2023-04-24T01:31:55;5.68;;;2.60;;
49488;SDS011;35382;51.484;11.476;2023-04-24T01:33:36;5.63;;;3.10;;
49488;SDS011;35382;51.484;11.476;2023-04-24T01:35:17;4.88;;;2.60;;
49488;SDS011;35382;51.484;11.476;2023-04-24T01:36:58;5.80;;;2.70;;
49488;SDS011;35382;51.484;11.476;2023-04-24T01:38:40;4.95;;;2.53;;
49488;SDS011;35382;51.484;11.476;2023-04-24T01:40:21;3.40;;;2.35;;
49488;SDS011;35382;51.484;11.476;2023-04-24T01:42:02;4.25;;;2.80;;
49488;SDS011;35382;51.484;11.476;2023-04-24T01:43:43;5.22;;;2.42;;
49488;SDS011;35382;51.484;11.476;2023-04-24T01:45:24;4.72;;;2.72;;
49488;SDS011;35382;51.484;11.476;2023-04-24T01:47:05;5.63;;;2.80;;
49488;SDS011;35382;51.484;11.476;2023-04-24T01:48:46;4.45;;;2.50;;
49488;SDS011;35382;51.484;11.476;2023-04-24T01:50:27;3.97;;;2.35;;
49488;SDS011;35382;51.484;11.476;2023-04-24T01:52:08;4.35;;;2.47;;
49488;SDS011;35382;51.484;11.476;2023-04-24T01:53:49;4.60;;;2.58;;
49488;SDS011;35382;51.484;11.476;2023-04-24T01:55:30;4.82;;;2.40;;
49488;SDS011;35382;51.484;11.476;2023-04-24T01:57:12;4.07;;;2.50;;
49488;SDS011;35382;51.484;11.476;2023-04-24T01:58:55;5.55;;;2.25;;
49488;SDS011;35382;51.484;11.476;2023-04-24T02:00:38;5.97;;;2.65;;
49488;SDS011;35382;51.484;11.476;2023-04-24T02:02:19;4.22;;;2.40;;
49488;SDS011;35382;51.484;11.476;2023-04-24T02:04:02;6.28;;;3.00;;
49488;SDS011;35382;51.484;11.476;2023-04-24T02:05:44;6.22;;;3.17;;
49488;SDS011;35382;51.484;11.476;2023-04-24T02:07:25;4.95;;;2.78;;
49488;SDS011;35382;51.484;11.476;2023-04-24T02:09:06;5.75;;;2.60;;
49488;SDS011;35382;51.484;11.476;2023-04-24T02:10:49;4.85;;;2.47;;
49488;SDS011;35382;51.484;11.476;2023-04-24T02:12:30;4.28;;;2.95;;
49488;SDS011;35382;51.484;11.476;2023-04-24T02:14:11;4.68;;;2.72;;
49488;SDS011;35382;51.484;11.476;2023-04-24T02:15:54;4.40;;;2.63;;
49488;SDS011;35382;51.484;11.476;2023-04-24T02:17:35;5.65;;;3.05;;
49488;SDS011;35382;51.484;11.476;2023-04-24T02:19:18;4.68;;;3.00;;
49488;SDS011;35382;51.484;11.476;2023-04-24T02:20:59;5.20;;;3.33;;
49488;SDS011;35382;51.484;11.476;2023-04-24T02:22:40;5.22;;;2.80;;
49488;SDS011;35382;51.484;11.476;2023-04-24T02:24:21;5.13;;;2.78;;
49488;SDS011;35382;51.484;11.476;2023-04-24T02:26:02;4.75;;;2.80;;
49488;SDS011;35382;51.484;11.476;2023-04-24T02:27:43;5.18;;;2.75;;
49488;SDS011;35382;51.484;11.476;2023-04-24T02:29:24;4.80;;;3.20;;
49488;SDS011;35382;51.484;11.476;2023-04-24T02:31:05;5.03;;;2.85;;
49488;SDS011;35382;51.484;11.476;2023-04-24T02:32:46;4.75;;;2.85;;
49488;SDS011;35382;51.484;11.476;2023-04-24T02:34:27;5.03;;;3.00;;
49488;SDS011;35382;51.484;11.476;2023-04-24T02:36:08;5.10;;;3.20;;
49488;SDS011;35382;51.484;11.476;2023-04-24T02:37:49;5.50;;;3.35;;
49488;SDS011;35382;51.484;11.476;2023-04-24T02:39:30;6.63;;;3.30;;
49488;SDS011;35382;51.484;11.476;2023-04-24T02:41:11;5.90;;;3.30;;
49488;SDS011;35382;51.484;11.476;2023-04-24T02:42:54;6.90;;;3.30;;
49488;SDS011;35382;51.484;11.476;2023-04-24T02:44:35;5.38;;;3.20;;
49488;SDS011;35382;51.484;11.476;2023-04-24T02:46:16;5.65;;;3.20;;
49488;SDS011;35382;51.484;11.476;2023-04-24T02:47:57;5.60;;;3.25;;
49488;SDS011;35382;51.484;11.476;2023-04-24T02:49:38;5.75;;;3.58;;
49488;SDS011;35382;51.484;11.476;2023-04-24T02:51:19;4.43;;;2.67;;
49488;SDS011;35382;51.484;11.476;2023-04-24T02:53:00;5.63;;;3.20;;
49488;SDS011;35382;51.484;11.476;2023-04-24T02:54:41;4.90;;;3.00;;
49488;SDS011;35382;51.484;11.476;2023-04-24T02:56:22;5.28;;;3.15;;
49488;SDS011;35382;51.484;11.476;2023-04-24T02:58:03;5.05;;;3.08;;
49488;SDS011;35382;51.484;11.476;2023-04-24T02:59:44;4.90;;;3.00;;
49488;SDS011;35382;51.484;11.476;2023-04-24T03:01:25;6.75;;;3.00;;
49488;SDS011;35382;51.484;11.476;2023-04-24T03:03:06;4.10;;;2.60;;
49488;SDS011;35382;51.484;11.476;2023-04-24T03:04:47;5.90;;;2.83;;
49488;SDS011;35382;51.484;11.476;2023-04-24T03:06:28;4.55;;;2.70;;
49488;SDS011;35382;51.484;11.476;2023-04-24T03:08:11;4.80;;;2.60;;
49488;SDS011;35382;51.484;11.476;2023-04-24T03:09:52;4.13;;;2.40;;
49488;SDS011;35382;51.484;11.476;2023-04-24T03:11:33;4.32;;;2.33;;
49488;SDS011;35382;51.484;11.476;2023-04-24T03:13:15;7.60;;;2.60;;
49488;SDS011;35382;51.484;11.476;2023-04-24T03:14:56;3.55;;;2.30;;
49488;SDS011;35382;51.484;11.476;2023-04-24T03:16:37;4.47;;;2.60;;
49488;SDS011;35382;51.484;11.476;2023-04-24T03:18:18;5.53;;;2.45;;
49488;SDS011;35382;51.484;11.476;2023-04-24T03:20:01;4.43;;;2.42;;
49488;SDS011;35382;51.484;11.476;2023-04-24T03:21:43;5.57;;;2.50;;
49488;SDS011;35382;51.484;11.476;2023-04-24T03:23:25;4.90;;;2.83;;
49488;SDS011;35382;51.484;11.476;2023-04-24T03:25:06;5.70;;;3.05;;
49488;SDS011;35382;51.484;11.476;2023-04-24T03:26:49;4.40;;;2.78;;
49488;SDS011;35382;51.484;11.476;2023-04-24T03:28:44;5.28;;;2.90;;
49488;SDS011;35382;51.484;11.476;2023-04-24T03:30:25;5.28;;;2.97;;
49488;SDS011;35382;51.484;11.476;2023-04-24T03:32:11;5.05;;;3.00;;
49488;SDS011;35382;51.484;11.476;2023-04-24T03:33:53;4.47;;;2.67;;
49488;SDS011;35382;51.484;11.476;2023-04-24T03:35:35;4.35;;;2.65;;
49488;SDS011;35382;51.484;11.476;2023-04-24T03:37:19;4.70;;;2.58;;
49488;SDS011;35382;51.484;11.476;2023-04-24T03:39:08;4.95;;;2.63;;
49488;SDS011;35382;51.484;11.476;2023-04-24T03:40:51;6.18;;;3.00;;
49488;SDS011;35382;51.484;11.476;2023-04-24T03:42:48;4.95;;;3.15;;
49488;SDS011;35382;51.484;11.476;2023-04-24T03:44:28;5.47;;;3.20;;
49488;SDS011;35382;51.484;11.476;2023-04-24T03:46:10;5.03;;;2.95;;
49488;SDS011;35382;51.484;11.476;2023-04-24T03:47:54;5.63;;;3.65;;
49488;SDS011;35382;51.484;11.476;2023-04-24T03:49:36;5.20;;;3.60;;
49488;SDS011;35382;51.484;11.476;2023-04-24T03:51:18;4.88;;;3.15;;
49488;SDS011;35382;51.484;11.476;2023-04-24T03:53:02;5.50;;;3.13;;
49488;SDS011;35382;51.484;11.476;2023-04-24T03:54:50;6.55;;;3.22;;
49488;SDS011;35382;51.484;11.476;2023-04-24T03:56:31;6.35;;;3.20;;
49488;SDS011;35382;51.484;11.476;2023-04-24T03:58:12;4.85;;;2.97;;
49488;SDS011;35382;51.484;11.476;2023-04-24T03:59:54;5.25;;;3.20;;
49488;SDS011;35382;51.484;11.476;2023-04-24T04:01:35;6.45;;;3.95;;
49488;SDS011;35382;51.484;11.476;2023-04-24T04:03:22;5.40;;;3.35;;
49488;SDS011;35382;51.484;11.476;2023-04-24T04:05:03;5.78;;;3.72;;
49488;SDS011;35382;51.484;11.476;2023-04-24T04:06:45;5.40;;;3.63;;
49488;SDS011;35382;51.484;11.476;2023-04-24T04:08:27;6.78;;;3.95;;
49488;SDS011;35382;51.484;11.476;2023-04-24T04:10:08;5.82;;;3.70;;
49488;SDS011;35382;51.484;11.476;2023-04-24T04:11:51;5.57;;;3.88;;
49488;SDS011;35382;51.484;11.476;2023-04-24T04:13:32;5.68;;;3.75;;
49488;SDS011;35382;51.484;11.476;2023-04-24T04:15:13;5.60;;;3.90;;
49488;SDS011;35382;51.484;11.476;2023-04-24T04:16:55;6.78;;;3.60;;
49488;SDS011;35382;51.484;11.476;2023-04-24T04:18:36;4.82;;;3.47;;
49488;SDS011;35382;51.484;11.476;2023-04-24T04:20:19;4.78;;;3.30;;
49488;SDS011;35382;51.484;11.476;2023-04-24T04:22:00;4.72;;;3.10;;
49488;SDS011;35382;51.484;11.476;2023-04-24T04:24:00;6.13;;;3.33;;
49488;SDS011;35382;51.484;11.476;2023-04-24T04:25:46;5.55;;;3.30;;
49488;SDS011;35382;51.484;11.476;2023-04-24T04:27:28;5.20;;;3.40;;
49488;SDS011;35382;51.484;11.476;2023-04-24T04:29:16;5.65;;;3.38;;
49488;SDS011;35382;51.484;11.476;2023-04-24T04:31:04;4.18;;;3.05;;
49488;SDS011;35382;51.484;11.476;2023-04-24T04:32:45;6.97;;;3.53;;
49488;SDS011;35382;51.484;11.476;2023-04-24T04:34:26;5.63;;;3.70;;
49488;SDS011;35382;51.484;11.476;2023-04-24T04:36:07;5.03;;;3.17;;
49488;SDS011;35382;51.484;11.476;2023-04-24T04:37:51;5.53;;;3.40;;
49488;SDS011;35382;51.484;11.476;2023-04-24T04:40:11;6.60;;;3.45;;
49488;SDS011;35382;51.484;11.476;2023-04-24T04:42:01;5.95;;;3.00;;
49488;SDS011;35382;51.484;11.476;2023-04-24T04:45:31;5.53;;;3.22;;
49488;SDS011;35382;51.484;11.476;2023-04-24T04:47:43;4.93;;;2.97;;
49488;SDS011;35382;51.484;11.476;2023-04-24T04:49:24;4.80;;;2.90;;
49488;SDS011;35382;51.484;11.476;2023-04-24T04:51:06;4.85;;;2.47;;
49488;SDS011;35382;51.484;11.476;2023-04-24T04:52:47;5.75;;;2.42;;
49488;SDS011;35382;51.484;11.476;2023-04-24T04:54:36;4.13;;;2.78;;
49488;SDS011;35382;51.484;11.476;2023-04-24T04:56:17;4.57;;;2.60;;
49488;SDS011;35382;51.484;11.476;2023-04-24T04:58:00;4.40;;;2.65;;
49488;SDS011;35382;51.484;11.476;2023-04-24T04:59:41;8.60;;;2.83;;
49488;SDS011;35382;51.484;11.476;2023-04-24T05:01:28;4.80;;;2.65;;
49488;SDS011;35382;51.484;11.476;2023-04-24T05:03:10;5.13;;;3.05;;
49488;SDS011;35382;51.484;11.476;2023-04-24T05:04:51;4.13;;;2.60;;
49488;SDS011;35382;51.484;11.476;2023-04-24T05:06:32;4.72;;;2.70;;
49488;SDS011;35382;51.484;11.476;2023-04-24T05:08:13;5.50;;;2.95;;
49488;SDS011;35382;51.484;11.476;2023-04-24T05:09:54;5.22;;;3.38;;
49488;SDS011;35382;51.484;11.476;2023-04-24T05:11:35;4.90;;;2.47;;
49488;SDS011;35382;51.484;11.476;2023-04-24T05:13:17;5.53;;;2.95;;
49488;SDS011;35382;51.484;11.476;2023-04-24T05:14:58;4.35;;;3.00;;
49488;SDS011;35382;51.484;11.476;2023-04-24T05:16:40;5.15;;;2.72;;
49488;SDS011;35382;51.484;11.476;2023-04-24T05:18:22;4.38;;;2.83;;
49488;SDS011;35382;51.484;11.476;2023-04-24T05:20:04;6.72;;;3.00;;
49488;SDS011;35382;51.484;11.476;2023-04-24T05:21:48;4.72;;;2.70;;
49488;SDS011;35382;51.484;11.476;2023-04-24T05:23:29;3.95;;;2.70;;
49488;SDS011;35382;51.484;11.476;2023-04-24T05:25:11;3.45;;;2.50;;
49488;SDS011;35382;51.484;11.476;2023-04-24T05:27:13;4.05;;;2.38;;
49488;SDS011;35382;51.484;11.476;2023-04-24T05:28:55;4.82;;;2.45;;
49488;SDS011;35382;51.484;11.476;2023-04-24T05:30:36;5.03;;;3.03;;
49488;SDS011;35382;51.484;11.476;2023-04-24T05:32:17;4.68;;;2.67;;
49488;SDS011;35382;51.484;11.476;2023-04-24T05:33:59;5.07;;;2.85;;
49488;SDS011;35382;51.484;11.476;2023-04-24T05:35:40;6.20;;;2.65;;
49488;SDS011;35382;51.484;11.476;2023-04-24T05:37:26;4.68;;;3.05;;
49488;SDS011;35382;51.484;11.476;2023-04-24T05:39:07;6.07;;;2.67;;
49488;SDS011;35382;51.484;11.476;2023-04-24T05:40:49;4.72;;;2.90;;
49488;SDS011;35382;51.484;11.476;2023-04-24T05:42:30;5.55;;;3.28;;
49488;SDS011;35382;51.484;11.476;2023-04-24T05:44:11;4.25;;;2.70;;
49488;SDS011;35382;51.484;11.476;2023-04-24T05:45:52;5.05;;;3.13;;
49488;SDS011;35382;51.484;11.476;2023-04-24T05:47:34;4.55;;;2.90;;
49488;SDS011;35382;51.484;11.476;2023-04-24T05:49:15;4.78;;;2.88;;
49488;SDS011;35382;51.484;11.476;2023-04-24T05:50:56;4.93;;;3.10;;
49488;SDS011;35382;51.484;11.476;2023-04-24T05:52:38;5.15;;;3.08;;
49488;SDS011;35382;51.484;11.476;2023-04-24T05:54:27;4.82;;;3.03;;
49488;SDS011;35382;51.484;11.476;2023-04-24T05:56:08;4.15;;;2.72;;
49488;SDS011;35382;51.484;11.476;2023-04-24T05:57:50;4.40;;;3.58;;
49488;SDS011;35382;51.484;11.476;2023-04-24T05:59:31;4.75;;;3.22;;
49488;SDS011;35382;51.484;11.476;2023-04-24T06:01:13;5.75;;;3.33;;
49488;SDS011;35382;51.484;11.476;2023-04-24T06:02:55;6.10;;;3.40;;
49488;SDS011;35382;51.484;11.476;2023-04-24T06:04:36;5.78;;;3.10;;
49488;SDS011;35382;51.484;11.476;2023-04-24T06:06:17;5.45;;;3.60;;
49488;SDS011;35382;51.484;11.476;2023-04-24T06:07:59;4.85;;;3.50;;
49488;SDS011;35382;51.484;11.476;2023-04-24T06:09:46;4.20;;;3.20;;
49488;SDS011;35382;51.484;11.476;2023-04-24T06:11:28;4.22;;;2.60;;
49488;SDS011;35382;51.484;11.476;2023-04-24T06:13:09;4.68;;;2.63;;
49488;SDS011;35382;51.484;11.476;2023-04-24T06:14:54;3.83;;;2.15;;
49488;SDS011;35382;51.484;11.476;2023-04-24T06:16:47;3.45;;;2.10;;
49488;SDS011;35382;51.484;11.476;2023-04-24T06:18:43;3.30;;;2.30;;
49488;SDS011;35382;51.484;11.476;2023-04-24T06:20:24;2.95;;;1.90;;
49488;SDS011;35382;51.484;11.476;2023-04-24T06:22:05;4.35;;;2.28;;
49488;SDS011;35382;51.484;11.476;2023-04-24T06:23:46;4.03;;;2.30;;
49488;SDS011;35382;51.484;11.476;2023-04-24T06:25:31;3.97;;;2.20;;
49488;SDS011;35382;51.484;11.476;2023-04-24T06:27:12;4.00;;;2.00;;
49488;SDS011;35382;51.484;11.476;2023-04-24T06:28:55;3.85;;;2.15;;
49488;SDS011;35382;51.484;11.476;2023-04-24T06:30:38;4.38;;;2.30;;
49488;SDS011;35382;51.484;11.476;2023-04-24T06:32:22;4.53;;;1.90;;
49488;SDS011;35382;51.484;11.476;2023-04-24T06:34:04;3.67;;;2.10;;
49488;SDS011;35382;51.484;11.476;2023-04-24T06:35:45;2.38;;;1.75;;
49488;SDS011;35382;51.484;11.476;2023-04-24T06:37:26;2.97;;;2.00;;
49488;SDS011;35382;51.484;11.476;2023-04-24T06:39:07;3.92;;;1.77;;
49488;SDS011;35382;51.484;11.476;2023-04-24T06:40:48;3.22;;;1.83;;
49488;SDS011;35382;51.484;11.476;2023-04-24T06:42:37;3.63;;;2.03;;
49488;SDS011;35382;51.484;11.476;2023-04-24T06:44:18;3.38;;;1.90;;
49488;SDS011;35382;51.484;11.476;2023-04-24T06:45:59;4.53;;;2.00;;
49488;SDS011;35382;51.484;11.476;2023-04-24T06:47:40;3.10;;;1.90;;
49488;SDS011;35382;51.484;11.476;2023-04-24T06:49:21;3.72;;;2.10;;
49488;SDS011;35382;51.484;11.476;2023-04-24T06:51:02;5.05;;;2.60;;
49488;SDS011;35382;51.484;11.476;2023-04-24T06:52:43;6.13;;;2.25;;
49488;SDS011;35382;51.484;11.476;2023-04-24T06:54:24;3.47;;;2.20;;
49488;SDS011;35382;51.484;11.476;2023-04-24T06:56:05;3.60;;;1.77;;
49488;SDS011;35382;51.484;11.476;2023-04-24T06:57:46;3.08;;;2.10;;
49488;SDS011;35382;51.484;11.476;2023-04-24T06:59:27;2.97;;;1.92;;
49488;SDS011;35382;51.484;11.476;2023-04-24T07:01:09;2.78;;;2.10;;
49488;SDS011;35382;51.484;11.476;2023-04-24T07:02:50;4.25;;;2.13;;
49488;SDS011;35382;51.484;11.476;2023-04-24T07:04:31;3.88;;;2.33;;
49488;SDS011;35382;51.484;11.476;2023-04-24T07:06:12;3.90;;;2.50;;
49488;SDS011;35382;51.484;11.476;2023-04-24T07:07:53;4.55;;;2.63;;
49488;SDS011;35382;51.484;11.476;2023-04-24T07:09:34;4.28;;;2.72;;
49488;SDS011;35382;51.484;11.476;2023-04-24T07:11:18;6.28;;;2.40;;
49488;SDS011;35382;51.484;11.476;2023-04-24T07:13:00;4.88;;;2.30;;
49488;SDS011;35382;51.484;11.476;2023-04-24T07:14:42;5.00;;;2.65;;
49488;SDS011;35382;51.484;11.476;2023-04-24T07:16:23;4.00;;;2.00;;
49488;SDS011;35382;51.484;11.476;2023-04-24T07:18:07;2.97;;;2.00;;
49488;SDS011;35382;51.484;11.476;2023-04-24T07:19:55;3.90;;;2.28;;
49488;SDS011;35382;51.484;11.476;2023-04-24T07:21:41;4.25;;;1.95;;
49488;SDS011;35382;51.484;11.476;2023-04-24T07:23:25;2.88;;;2.00;;
49488;SDS011;35382;51.484;11.476;2023-04-24T07:25:09;13.57;;;3.40;;
49488;SDS011;35382;51.484;11.476;2023-04-24T07:26:50;5.78;;;2.40;;
49488;SDS011;35382;51.484;11.476;2023-04-24T07:28:32;3.63;;;2.00;;
49488;SDS011;35382;51.484;11.476;2023-04-24T07:30:13;3.40;;;2.10;;
49488;SDS011;35382;51.484;11.476;2023-04-24T07:31:54;4.25;;;2.08;;
49488;SDS011;35382;51.484;11.476;2023-04-24T07:33:39;5.32;;;2.05;;
49488;SDS011;35382;51.484;11.476;2023-04-24T07:35:20;4.57;;;2.35;;
49488;SDS011;35382;51.484;11.476;2023-04-24T07:37:01;6.55;;;2.22;;
49488;SDS011;35382;51.484;11.476;2023-04-24T07:38:42;5.07;;;2.28;;
49488;SDS011;35382;51.484;11.476;2023-04-24T07:40:24;5.05;;;2.45;;
49488;SDS011;35382;51.484;11.476;2023-04-24T07:42:05;3.47;;;1.90;;
49488;SDS011;35382;51.484;11.476;2023-04-24T07:43:49;5.28;;;2.65;;
49488;SDS011;35382;51.484;11.476;2023-04-24T07:45:30;4.05;;;2.47;;
49488;SDS011;35382;51.484;11.476;2023-04-24T07:47:11;3.58;;;2.10;;
49488;SDS011;35382;51.484;11.476;2023-04-24T07:48:52;3.97;;;2.00;;
49488;SDS011;35382;51.484;11.476;2023-04-24T07:50:34;3.30;;;1.70;;
49488;SDS011;35382;51.484;11.476;2023-04-24T07:52:16;4.50;;;2.03;;
49488;SDS011;35382;51.484;11.476;2023-04-24T07:54:00;4.55;;;2.13;;
49488;SDS011;35382;51.484;11.476;2023-04-24T07:55:47;3.83;;;1.88;;
49488;SDS011;35382;51.484;11.476;2023-04-24T07:57:28;3.85;;;2.30;;
49488;SDS011;35382;51.484;11.476;2023-04-24T07:59:10;3.97;;;2.00;;
49488;SDS011;35382;51.484;11.476;2023-04-24T08:00:51;5.32;;;2.10;;
49488;SDS011;35382;51.484;11.476;2023-04-24T08:02:32;3.38;;;1.77;;
49488;SDS011;35382;51.484;11.476;2023-04-24T08:04:27;3.40;;;1.92;;
49488;SDS011;35382;51.484;11.476;2023-04-24T08:06:17;3.17;;;1.85;;
49488;SDS011;35382;51.484;11.476;2023-04-24T08:07:58;4.50;;;2.25;;
49488;SDS011;35382;51.484;11.476;2023-04-24T08:09:39;6.45;;;2.33;;
49488;SDS011;35382;51.484;11.476;2023-04-24T08:11:20;4.03;;;1.70;;
49488;SDS011;35382;51.484;11.476;2023-04-24T08:13:01;3.25;;;1.85;;
49488;SDS011;35382;51.484;11.476;2023-04-24T08:14:46;3.17;;;1.90;;
49488;SDS011;35382;51.484;11.476;2023-04-24T08:16:30;4.05;;;1.85;;
49488;SDS011;35382;51.484;11.476;2023-04-24T08:18:15;3.72;;;1.95;;
49488;SDS011;35382;51.484;11.476;2023-04-24T08:19:56;3.67;;;1.70;;
49488;SDS011;35382;51.484;11.476;2023-04-24T08:21:45;4.18;;;1.60;;
49488;SDS011;35382;51.484;11.476;2023-04-24T08:23:27;3.45;;;1.70;;
49488;SDS011;35382;51.484;11.476;2023-04-24T08:25:19;3.17;;;1.63;;
49488;SDS011;35382;51.484;11.476;2023-04-24T08:27:06;3.57;;;1.60;;
49488;SDS011;35382;51.484;11.476;2023-04-24T08:28:47;3.83;;;1.83;;
49488;SDS011;35382;51.484;11.476;2023-04-24T08:30:34;2.72;;;1.70;;
49488;SDS011;35382;51.484;11.476;2023-04-24T08:32:25;4.70;;;2.00;;
49488;SDS011;35382;51.484;11.476;2023-04-24T08:34:14;3.45;;;1.75;;
49488;SDS011;35382;51.484;11.476;2023-04-24T08:35:58;3.90;;;1.73;;
49488;SDS011;35382;51.484;11.476;2023-04-24T08:37:48;3.15;;;1.80;;
49488;SDS011;35382;51.484;11.476;2023-04-24T08:41:25;4.40;;;2.10;;
49488;SDS011;35382;51.484;11.476;2023-04-24T08:43:07;5.80;;;2.20;;
49488;SDS011;35382;51.484;11.476;2023-04-24T08:44:48;5.10;;;2.40;;
49488;SDS011;35382;51.484;11.476;2023-04-24T08:46:30;2.92;;;1.80;;
49488;SDS011;35382;51.484;11.476;2023-04-24T08:48:11;4.60;;;2.33;;
49488;SDS011;35382;51.484;11.476;2023-04-24T08:49:52;3.92;;;2.00;;
49488;SDS011;35382;51.484;11.476;2023-04-24T08:51:34;4.00;;;2.10;;
49488;SDS011;35382;51.484;11.476;2023-04-24T08:53:17;5.00;;;1.90;;
49488;SDS011;35382;51.484;11.476;2023-04-24T08:55:00;3.15;;;1.95;;
49488;SDS011;35382;51.484;11.476;2023-04-24T08:56:43;5.93;;;2.22;;
49488;SDS011;35382;51.484;11.476;2023-04-24T08:58:25;4.40;;;2.22;;
49488;SDS011;35382;51.484;11.476;2023-04-24T09:00:07;3.83;;;2.50;;
49488;SDS011;35382;51.484;11.476;2023-04-24T09:01:51;3.33;;;2.13;;
49488;SDS011;35382;51.484;11.476;2023-04-24T09:03:32;3.83;;;2.10;;
49488;SDS011;35382;51.484;11.476;2023-04-24T09:05:13;3.20;;;2.05;;
49488;SDS011;35382;51.484;11.476;2023-04-24T09:06:56;3.13;;;1.73;;
49488;SDS011;35382;51.484;11.476;2023-04-24T09:08:40;3.70;;;1.80;;
49488;SDS011;35382;51.484;11.476;2023-04-24T09:10:23;3.30;;;1.63;;
49488;SDS011;35382;51.484;11.476;2023-04-24T09:12:05;3.40;;;1.83;;
49488;SDS011;35382;51.484;11.476;2023-04-24T09:13:46;4.53;;;2.22;;
49488;SDS011;35382;51.484;11.476;2023-04-24T09:15:28;3.05;;;1.50;;
49488;SDS011;35382;51.484;11.476;2023-04-24T09:17:09;3.40;;;1.48;;
49488;SDS011;35382;51.484;11.476;2023-04-24T09:18:51;2.08;;;1.52;;
49488;SDS011;35382;51.484;11.476;2023-04-24T09:20:33;3.55;;;1.60;;
49488;SDS011;35382;51.484;11.476;2023-04-24T09:22:15;2.20;;;1.67;;
49488;SDS011;35382;51.484;11.476;2023-04-24T09:24:00;2.83;;;1.80;;
49488;SDS011;35382;51.484;11.476;2023-04-24T09:25:43;3.63;;;1.70;;
49488;SDS011;35382;51.484;11.476;2023-04-24T09:27:24;4.43;;;2.10;;
49488;SDS011;35382;51.484;11.476;2023-04-24T09:29:05;3.40;;;1.90;;
49488;SDS011;35382;51.484;11.476;2023-04-24T09:30:46;2.67;;;1.77;;
49488;SDS011;35382;51.484;11.476;2023-04-24T09:32:41;2.92;;;1.63;;
49488;SDS011;35382;51.484;11.476;2023-04-24T09:34:23;5.22;;;1.70;;
49488;SDS011;35382;51.484;11.476;2023-04-24T09:36:05;4.10;;;1.95;;
49488;SDS011;35382;51.484;11.476;2023-04-24T09:37:46;2.65;;;1.60;;
49488;SDS011;35382;51.484;11.476;2023-04-24T09:39:29;3.72;;;1.73;;
49488;SDS011;35382;51.484;11.476;2023-04-24T09:41:13;4.93;;;2.67;;
49488;SDS011;35382;51.484;11.476;2023-04-24T09:42:55;2.35;;;1.30;;
49488;SDS011;35382;51.484;11.476;2023-04-24T09:44:41;2.70;;;1.70;;
49488;SDS011;35382;51.484;11.476;2023-04-24T09:46:29;2.85;;;1.38;;
49488;SDS011;35382;51.484;11.476;2023-04-24T09:48:11;3.88;;;1.88;;
49488;SDS011;35382;51.484;11.476;2023-04-24T09:49:53;3.00;;;1.38;;
49488;SDS011;35382;51.484;11.476;2023-04-24T09:51:38;2.88;;;1.70;;
49488;SDS011;35382;51.484;11.476;2023-04-24T09:53:23;2.38;;;1.42;;
49488;SDS011;35382;51.484;11.476;2023-04-24T09:55:10;2.58;;;1.83;;
49488;SDS011;35382;51.484;11.476;2023-04-24T09:56:51;3.17;;;1.63;;
49488;SDS011;35382;51.484;11.476;2023-04-24T09:58:32;2.92;;;1.60;;
49488;SDS011;35382;51.484;11.476;2023-04-24T10:00:21;3.08;;;1.60;;
49488;SDS011;35382;51.484;11.476;2023-04-24T10:02:16;4.43;;;1.50;;
49488;SDS011;35382;51.484;11.476;2023-04-24T10:03:58;3.05;;;1.80;;
49488;SDS011;35382;51.484;11.476;2023-04-24T10:05:40;3.25;;;2.08;;
49488;SDS011;35382;51.484;11.476;2023-04-24T10:07:21;2.72;;;1.40;;
49488;SDS011;35382;51.484;11.476;2023-04-24T10:09:02;4.25;;;1.50;;
49488;SDS011;35382;51.484;11.476;2023-04-24T10:10:44;6.18;;;1.60;;
49488;SDS011;35382;51.484;11.476;2023-04-24T10:12:26;3.72;;;1.63;;